Terminal Aerodrome Forecast
Issued by NWS St Louis, MO

Home | Current Version | Previous Version | Text Only | Print | Product List | Glossary On
Versions: 1 2 3 4 5 6 7 8 9 10 11 12 13 14 15 16 17 18 19 20 21 22 23 24 25 26 27 28 29 30 31
000
FTUS43 KLSX 270107 AAA
TAFCOU
TAF AMD
KCOU 270107Z 2701/2724 VRB04KT P6SM SCT030 BKN250
     FM270700 07007KT 4SM SHRA OVC015
     FM271200 08006KT 5SM -SHRA BR OVC005
     FM271600 01006KT P6SM OVC008
     FM272100 34008KT P6SM OVC020=

USA.gov is the U.S. government's official web portal to all federal, state and local government web resources and services.